createdAt,value
2022-08-19T00:01:56.955Z,6.95
2022-08-19T00:04:28.450Z,6.88
2022-08-19T00:06:56.061Z,7.30
2022-08-19T00:09:25.009Z,7.63
2022-08-19T00:11:54.275Z,7.65
2022-08-19T00:14:21.866Z,7.57
2022-08-19T00:16:50.046Z,7.78
2022-08-19T00:19:17.579Z,7.28
2022-08-19T00:21:45.058Z,7.55
2022-08-19T00:24:14.384Z,8.27
2022-08-19T00:26:42.906Z,7.45
2022-08-19T00:29:13.880Z,5.80
2022-08-19T00:31:43.300Z,6.40
2022-08-19T00:34:14.827Z,7.50
2022-08-19T00:36:43.865Z,7.63
2022-08-19T00:39:11.143Z,6.30
2022-08-19T00:41:38.894Z,5.63
2022-08-19T00:44:18.125Z,6.68
2022-08-19T00:46:55.197Z,6.88
2022-08-19T00:49:46.902Z,6.43
2022-08-19T00:52:17.754Z,5.75
2022-08-19T00:54:52.618Z,7.28
2022-08-19T00:57:24.407Z,6.13
2022-08-19T01:00:02.247Z,6.63
2022-08-19T01:02:32.166Z,7.68
2022-08-19T01:05:02.854Z,7.07
2022-08-19T01:07:37.726Z,6.75
2022-08-19T01:10:10.279Z,7.32
2022-08-19T01:12:38.368Z,10.60
2022-08-19T01:15:09.242Z,9.65
2022-08-19T01:17:41.305Z,14.90
2022-08-19T01:20:16.201Z,16.77
2022-08-19T01:22:47.977Z,11.15
2022-08-19T01:25:17.238Z,9.60
2022-08-19T01:27:49.962Z,8.93
2022-08-19T01:30:25.455Z,9.05
2022-08-19T01:32:54.833Z,8.82
2022-08-19T01:35:24.662Z,8.60
2022-08-19T01:38:00.929Z,8.20
2022-08-19T01:40:31.899Z,7.40
2022-08-19T01:42:59.577Z,6.40
2022-08-19T01:45:29.998Z,6.95
2022-08-19T01:48:01.427Z,6.72
2022-08-19T01:50:34.963Z,6.50
2022-08-19T01:53:06.522Z,6.75
2022-08-19T01:55:42.202Z,6.80
2022-08-19T01:58:16.108Z,6.28
2022-08-19T02:00:44.902Z,6.35
2022-08-19T02:03:12.538Z,6.88
2022-08-19T02:05:41.405Z,7.22
2022-08-19T02:08:09.529Z,8.52
2022-08-19T02:10:42.257Z,9.52
2022-08-19T02:13:10.535Z,9.77
2022-08-19T02:15:38.422Z,9.68
2022-08-19T02:18:06.483Z,7.75
2022-08-19T02:20:34.355Z,7.38
2022-08-19T02:23:02.410Z,7.10
2022-08-19T02:25:29.408Z,7.07
2022-08-19T02:27:57.375Z,7.63
2022-08-19T02:30:25.643Z,8.55
2022-08-19T02:32:54.186Z,8.00
2022-08-19T02:35:23.101Z,7.35
2022-08-19T02:38:09.195Z,7.70
2022-08-19T02:40:37.902Z,8.98
2022-08-19T02:43:08.420Z,7.57
2022-08-19T02:45:41.311Z,8.10
2022-08-19T02:48:14.851Z,8.02
2022-08-19T02:50:58.250Z,8.63
2022-08-19T02:53:28.703Z,10.10
2022-08-19T02:55:56.852Z,7.38
2022-08-19T02:58:25.396Z,7.47
2022-08-19T03:00:55.509Z,8.18
2022-08-19T03:03:22.973Z,7.75
2022-08-19T03:05:56.090Z,7.03
2022-08-19T03:08:25.423Z,7.47
2022-08-19T03:10:54.452Z,8.13
2022-08-19T03:13:24.397Z,7.80
2022-08-19T03:15:51.356Z,7.07
2022-08-19T03:18:19.500Z,7.15
2022-08-19T03:20:52.961Z,7.55
2022-08-19T03:23:21.064Z,7.70
2022-08-19T03:25:58.217Z,7.55
2022-08-19T03:28:32.399Z,8.25
2022-08-19T03:31:41.687Z,8.32
2022-08-19T03:33:56.791Z,38.60
2022-08-19T03:36:26.798Z,25.48
2022-08-19T03:39:00.803Z,27.17
2022-08-19T03:41:44.682Z,17.70
2022-08-19T03:44:17.730Z,12.65
2022-08-19T03:46:53.721Z,11.60
2022-08-19T03:49:27.128Z,12.63
2022-08-19T03:51:58.806Z,14.13
2022-08-19T03:54:26.933Z,14.20
2022-08-19T03:56:56.126Z,18.63
2022-08-19T03:59:30.913Z,16.17
2022-08-19T04:01:59.944Z,17.92
2022-08-19T04:04:29.274Z,16.65
2022-08-19T04:06:58.644Z,15.85
2022-08-19T04:09:25.719Z,16.48
2022-08-19T04:11:55.219Z,16.15
2022-08-19T04:14:25.895Z,16.08
2022-08-19T04:16:54.303Z,14.23
2022-08-19T04:19:21.706Z,11.40
2022-08-19T04:21:52.843Z,10.27
2022-08-19T04:24:21.650Z,10.73
2022-08-19T04:26:48.942Z,9.77
2022-08-19T04:29:26.854Z,9.82
2022-08-19T04:31:56.766Z,8.68
2022-08-19T04:34:26.971Z,9.43
2022-08-19T04:36:58.323Z,7.85
2022-08-19T04:39:50.575Z,8.93
2022-08-19T04:42:37.571Z,8.68
2022-08-19T04:45:12.329Z,7.65
2022-08-19T04:47:47.119Z,8.27
2022-08-19T04:50:20.316Z,8.40
2022-08-19T04:52:47.348Z,8.57
2022-08-19T04:55:15.429Z,9.25
2022-08-19T04:57:42.794Z,9.10
2022-08-19T05:00:11.208Z,8.70
2022-08-19T05:02:39.001Z,7.80
2022-08-19T05:05:08.274Z,7.55
2022-08-19T05:07:35.656Z,8.00
2022-08-19T05:10:06.090Z,8.50
2022-08-19T05:12:33.950Z,8.50
2022-08-19T05:15:01.850Z,8.70
2022-08-19T05:17:32.401Z,8.77
2022-08-19T05:20:24.218Z,8.45
2022-08-19T05:22:51.666Z,8.98
2022-08-19T05:25:21.398Z,8.80
2022-08-19T05:27:49.441Z,8.50
2022-08-19T05:30:18.824Z,8.10
2022-08-19T05:33:01.357Z,8.75
2022-08-19T05:35:30.149Z,9.05
2022-08-19T05:38:02.263Z,8.45
2022-08-19T05:40:29.704Z,8.50
2022-08-19T05:42:57.307Z,9.25
2022-08-19T05:45:24.272Z,9.23
2022-08-19T05:47:51.636Z,9.52
2022-08-19T05:50:18.879Z,9.25
2022-08-19T05:52:50.712Z,9.32
2022-08-19T05:55:18.273Z,10.90
2022-08-19T05:57:45.834Z,10.23
2022-08-19T06:00:14.518Z,10.10
2022-08-19T06:02:42.009Z,10.77
2022-08-19T06:05:10.953Z,10.32
2022-08-19T06:07:39.314Z,10.32
2022-08-19T06:10:09.153Z,10.88
2022-08-19T06:12:39.725Z,9.18
2022-08-19T06:15:14.582Z,11.73
2022-08-19T06:17:43.246Z,10.30
2022-08-19T06:20:14.290Z,9.90
2022-08-19T06:22:44.299Z,8.82
2022-08-19T06:25:12.743Z,9.05
2022-08-19T06:28:11.633Z,9.68
2022-08-19T06:30:28.508Z,10.52
2022-08-19T06:32:55.490Z,10.88
2022-08-19T06:35:22.817Z,10.63
2022-08-19T06:37:50.068Z,9.70
2022-08-19T06:40:17.387Z,9.13
2022-08-19T06:42:54.321Z,9.95
2022-08-19T06:45:34.801Z,10.57
2022-08-19T06:48:04.133Z,9.05
2022-08-19T06:50:31.356Z,9.52
2022-08-19T06:52:58.679Z,10.20
2022-08-19T06:55:33.614Z,9.63
2022-08-19T06:58:04.638Z,10.05
2022-08-19T07:00:32.553Z,9.52
2022-08-19T07:03:04.552Z,8.50
2022-08-19T07:05:41.119Z,10.18
2022-08-19T07:08:14.056Z,9.20
2022-08-19T07:10:45.628Z,8.50
2022-08-19T07:13:13.056Z,7.78
2022-08-19T07:15:40.539Z,7.80
2022-08-19T07:18:08.085Z,9.00
2022-08-19T07:20:41.983Z,7.78
2022-08-19T07:23:12.044Z,6.85
2022-08-19T07:25:44.538Z,8.70
2022-08-19T07:28:23.071Z,8.60
2022-08-19T07:30:52.812Z,8.10
2022-08-19T07:33:20.696Z,8.07
2022-08-19T07:35:48.099Z,8.80
2022-08-19T07:38:16.390Z,7.30
2022-08-19T07:40:47.488Z,6.20
2022-08-19T07:43:17.776Z,7.50
2022-08-19T07:45:46.387Z,6.05
2022-08-19T07:48:14.425Z,7.57
2022-08-19T07:50:41.960Z,7.63
2022-08-19T07:53:08.900Z,6.78
2022-08-19T07:55:41.264Z,6.68
2022-08-19T07:58:13.491Z,6.93
2022-08-19T08:00:42.092Z,8.00
2022-08-19T08:03:10.241Z,7.75
2022-08-19T08:05:56.296Z,7.07
2022-08-19T08:08:44.382Z,6.03
2022-08-19T08:11:15.986Z,7.05
2022-08-19T08:13:44.572Z,7.40
2022-08-19T08:16:14.397Z,7.82
2022-08-19T08:18:50.471Z,7.50
2022-08-19T08:23:45.370Z,7.10
2022-08-19T08:26:15.939Z,6.97
2022-08-19T08:28:49.463Z,6.82
2022-08-19T08:31:17.522Z,6.97
2022-08-19T08:33:44.661Z,6.65
2022-08-19T08:36:14.746Z,7.10
2022-08-19T08:38:44.392Z,5.97
2022-08-19T08:41:14.493Z,6.93
2022-08-19T08:43:45.190Z,6.47
2022-08-19T08:46:41.153Z,6.60
2022-08-19T08:49:34.777Z,6.90
2022-08-19T08:52:08.004Z,6.88
2022-08-19T08:54:48.940Z,6.93
2022-08-19T08:57:43.539Z,6.80
2022-08-19T09:00:21.017Z,6.88
2022-08-19T09:02:51.006Z,7.05
2022-08-19T09:05:25.764Z,6.82
2022-08-19T09:08:01.725Z,6.72
2022-08-19T09:10:45.425Z,7.97
2022-08-19T09:13:28.574Z,6.47
2022-08-19T09:16:12.545Z,7.32
2022-08-19T09:18:54.480Z,7.15
2022-08-19T09:21:30.565Z,6.88
2022-08-19T09:24:00.997Z,6.03
2022-08-19T09:26:47.243Z,7.10
2022-08-19T09:29:22.561Z,6.93
2022-08-19T09:31:51.247Z,6.88
2022-08-19T09:34:22.141Z,6.68
2022-08-19T09:36:54.822Z,6.10
2022-08-19T09:39:23.257Z,6.70
2022-08-19T09:41:51.157Z,5.75
2022-08-19T09:44:21.932Z,5.95
2022-08-19T09:46:49.499Z,6.60
2022-08-19T09:49:19.087Z,6.00
2022-08-19T09:51:51.365Z,6.30
2022-08-19T09:54:23.667Z,5.53
2022-08-19T09:56:55.087Z,6.50
2022-08-19T09:59:22.600Z,6.68
2022-08-19T10:01:50.620Z,5.90
2022-08-19T10:04:20.477Z,6.22
2022-08-19T10:06:51.826Z,5.80
2022-08-19T10:09:26.099Z,5.97
2022-08-19T10:12:02.861Z,6.45
2022-08-19T10:14:30.276Z,6.18
2022-08-19T10:16:59.274Z,6.43
2022-08-19T10:19:26.979Z,6.88
2022-08-19T10:21:55.674Z,5.90
2022-08-19T10:24:29.071Z,5.13
2022-08-19T10:26:58.923Z,5.28
2022-08-19T10:29:32.654Z,6.45
2022-08-19T10:32:09.527Z,6.28
2022-08-19T10:34:48.076Z,5.60
2022-08-19T10:37:23.542Z,6.10
2022-08-19T10:39:51.852Z,5.57
2022-08-19T10:42:21.835Z,6.90
2022-08-19T10:44:49.406Z,6.55
2022-08-19T10:47:25.927Z,6.20
2022-08-19T10:50:14.559Z,6.13
2022-08-19T10:52:49.145Z,6.13
2022-08-19T10:55:43.503Z,5.20
2022-08-19T10:58:15.844Z,5.03
2022-08-19T11:00:44.842Z,5.30
2022-08-19T11:03:12.169Z,5.28
2022-08-19T11:05:40.690Z,5.85
2022-08-19T11:08:22.673Z,7.30
2022-08-19T11:10:54.737Z,7.03
2022-08-19T11:13:24.608Z,6.55
2022-08-19T11:16:16.216Z,5.20
2022-08-19T11:18:48.013Z,5.68
2022-08-19T11:21:25.981Z,6.97
2022-08-19T11:23:56.649Z,7.22
2022-08-19T11:26:24.361Z,7.00
2022-08-19T11:28:55.225Z,7.85
2022-08-19T11:31:30.588Z,5.78
2022-08-19T11:34:00.839Z,7.25
2022-08-19T11:36:28.581Z,7.35
2022-08-19T11:38:57.199Z,6.82
2022-08-19T11:41:25.506Z,5.40
2022-08-19T11:43:56.182Z,4.13
2022-08-19T11:46:26.177Z,3.58
2022-08-19T11:48:53.740Z,3.80
2022-08-19T11:51:25.546Z,4.75
2022-08-19T11:53:54.369Z,4.10
2022-08-19T11:56:22.490Z,4.00
2022-08-19T11:58:50.291Z,4.10
2022-08-19T12:01:21.435Z,4.30
2022-08-19T12:03:50.969Z,4.28
2022-08-19T12:06:27.327Z,4.05
2022-08-19T12:08:55.116Z,4.07
2022-08-19T12:11:22.604Z,4.13
2022-08-19T12:13:50.110Z,3.70
2022-08-19T12:16:22.632Z,3.70
2022-08-19T12:18:52.890Z,4.22
2022-08-19T12:21:23.745Z,4.22
2022-08-19T12:23:55.634Z,3.95
2022-08-19T12:26:25.167Z,3.72
2022-08-19T12:28:52.644Z,4.28
2022-08-19T12:31:20.829Z,3.35
2022-08-19T12:33:49.410Z,3.67
2022-08-19T12:36:18.532Z,3.55
2022-08-19T12:38:46.270Z,4.97
2022-08-19T12:41:20.595Z,4.15
2022-08-19T12:43:49.297Z,3.88
2022-08-19T12:46:17.564Z,3.88
2022-08-19T12:48:46.999Z,3.83
2022-08-19T12:51:20.664Z,3.67
2022-08-19T12:53:49.792Z,3.50
2022-08-19T12:56:20.046Z,4.10
2022-08-19T12:58:51.048Z,3.75
2022-08-19T13:01:23.235Z,3.92
2022-08-19T13:03:54.194Z,4.07
2022-08-19T13:06:22.482Z,3.83
2022-08-19T13:08:49.570Z,3.22
2022-08-19T13:11:19.932Z,3.78
2022-08-19T13:13:50.760Z,4.20
2022-08-19T13:16:19.356Z,3.70
2022-08-19T13:18:57.699Z,3.70
2022-08-19T13:21:28.843Z,3.75
2022-08-19T13:23:56.793Z,3.92
2022-08-19T13:26:24.841Z,3.80
2022-08-19T13:29:10.677Z,4.43
2022-08-19T13:32:00.257Z,4.28
2022-08-19T13:34:34.943Z,3.90
2022-08-19T13:37:06.847Z,4.32
2022-08-19T13:39:35.224Z,3.67
2022-08-19T13:42:03.051Z,4.15
2022-08-19T13:44:31.139Z,4.47
2022-08-19T13:47:07.338Z,4.30
2022-08-19T13:49:38.081Z,3.90
2022-08-19T13:52:06.788Z,4.45
2022-08-19T13:54:34.336Z,3.45
2022-08-19T13:57:01.811Z,4.32
2022-08-19T13:59:29.040Z,4.10
2022-08-19T14:02:00.544Z,4.47
2022-08-19T14:04:30.623Z,4.32
2022-08-19T14:06:57.618Z,4.20
2022-08-19T14:09:25.195Z,4.65
2022-08-19T14:11:52.909Z,4.03
2022-08-19T14:14:20.119Z,4.00
2022-08-19T14:16:47.166Z,4.88
2022-08-19T14:19:14.774Z,5.05
2022-08-19T14:21:42.267Z,4.43
2022-08-19T14:24:09.968Z,4.88
2022-08-19T14:26:37.299Z,5.10
2022-08-19T14:29:06.250Z,5.68
2022-08-19T14:31:33.215Z,4.60
2022-08-19T14:34:01.173Z,4.72
2022-08-19T14:36:28.133Z,5.78
2022-08-19T14:38:55.842Z,4.57
2022-08-19T14:41:24.495Z,4.20
2022-08-19T14:43:53.309Z,5.60
2022-08-19T14:46:22.773Z,5.07
2022-08-19T14:48:52.574Z,4.72
2022-08-19T14:51:21.214Z,4.43
2022-08-19T14:53:52.869Z,4.95
2022-08-19T14:56:25.290Z,4.97
2022-08-19T14:58:53.624Z,4.40
2022-08-19T15:01:23.203Z,4.32
2022-08-19T15:03:50.669Z,5.20
2022-08-19T15:06:17.848Z,4.45
2022-08-19T15:08:45.983Z,4.97
2022-08-19T15:11:21.287Z,4.30
2022-08-19T15:13:49.205Z,4.88
2022-08-19T15:16:18.394Z,5.40
2022-08-19T15:18:47.628Z,4.50
2022-08-19T15:21:26.500Z,4.85
2022-08-19T15:23:57.742Z,5.13
2022-08-19T15:26:26.819Z,5.68
2022-08-19T15:28:54.306Z,4.93
2022-08-19T15:31:28.736Z,4.90
2022-08-19T15:33:58.814Z,4.60
2022-08-19T15:36:27.419Z,5.07
2022-08-19T15:38:58.630Z,4.97
2022-08-19T15:41:30.815Z,4.65
2022-08-19T15:44:04.767Z,5.07
2022-08-19T15:46:34.093Z,5.20
2022-08-19T15:49:01.689Z,9.52
2022-08-19T15:51:32.629Z,6.53
2022-08-19T15:54:00.435Z,5.25
2022-08-19T15:56:58.282Z,4.47
2022-08-19T15:59:47.095Z,4.88
2022-08-19T16:02:35.205Z,4.82
2022-08-19T16:05:26.552Z,5.15
2022-08-19T16:07:55.178Z,4.70
2022-08-19T16:10:27.420Z,4.53
2022-08-19T16:12:58.046Z,4.63
2022-08-19T16:15:30.639Z,5.88
2022-08-19T16:17:58.875Z,5.13
2022-08-19T16:20:27.991Z,7.30
2022-08-19T16:22:58.299Z,7.05
2022-08-19T16:25:29.066Z,7.00
2022-08-19T16:28:07.778Z,6.28
2022-08-19T16:30:41.336Z,13.68
2022-08-19T16:33:10.071Z,7.65
2022-08-19T16:35:37.887Z,7.32
2022-08-19T16:38:07.201Z,4.97
2022-08-19T16:40:34.960Z,7.65
2022-08-19T16:43:03.052Z,5.53
2022-08-19T16:45:30.784Z,6.18
2022-08-19T16:47:58.341Z,5.05
2022-08-19T16:50:45.823Z,5.97
2022-08-19T16:53:13.364Z,6.90
2022-08-19T16:55:41.280Z,7.20
2022-08-19T16:58:08.549Z,5.80
2022-08-19T17:00:39.104Z,5.15
2022-08-19T17:03:14.670Z,6.25
2022-08-19T17:06:03.848Z,5.38
2022-08-19T17:08:32.682Z,4.97
2022-08-19T17:11:17.005Z,5.03
2022-08-19T17:13:47.594Z,5.63
2022-08-19T17:16:16.602Z,4.72
2022-08-19T17:18:44.233Z,4.78
2022-08-19T17:21:13.485Z,4.60
2022-08-19T17:23:42.942Z,4.80
2022-08-19T17:26:18.065Z,4.88
2022-08-19T17:28:49.926Z,4.65
2022-08-19T17:31:21.668Z,5.32
2022-08-19T17:33:50.022Z,4.80
2022-08-19T17:36:19.486Z,5.25
2022-08-19T17:38:47.404Z,4.38
2022-08-19T17:41:14.419Z,5.50
2022-08-19T17:43:43.948Z,5.80
2022-08-19T17:46:17.727Z,6.00
2022-08-19T17:48:52.199Z,6.03
2022-08-19T17:51:42.184Z,4.95
2022-08-19T17:54:14.099Z,5.43
2022-08-19T17:56:42.734Z,6.63
2022-08-19T17:59:13.972Z,5.70
2022-08-19T18:01:53.441Z,5.32
2022-08-19T18:04:26.147Z,5.50
2022-08-19T18:06:55.721Z,5.10
2022-08-19T18:09:27.269Z,5.32
2022-08-19T18:11:57.878Z,4.85
2022-08-19T18:14:33.643Z,6.18
2022-08-19T18:17:06.521Z,5.82
2022-08-19T18:19:42.092Z,6.28
2022-08-19T18:22:30.988Z,5.70
2022-08-19T18:24:58.851Z,5.50
2022-08-19T18:27:27.881Z,6.38
2022-08-19T18:30:00.043Z,6.20
2022-08-19T18:32:33.735Z,5.28
2022-08-19T18:35:10.905Z,6.85
2022-08-19T18:40:32.458Z,7.82
2022-08-19T18:43:22.951Z,9.15
2022-08-19T18:46:10.406Z,9.38
2022-08-19T18:48:57.477Z,8.88
2022-08-19T18:51:28.577Z,6.82
2022-08-19T18:53:59.033Z,8.57
2022-08-19T18:56:29.697Z,7.63
2022-08-19T18:58:56.958Z,6.80
2022-08-19T19:01:37.238Z,7.78
2022-08-19T19:04:10.702Z,6.65
2022-08-19T19:06:41.502Z,6.45
2022-08-19T19:09:13.032Z,4.30
2022-08-19T19:11:46.885Z,5.15
2022-08-19T19:14:45.797Z,4.80
2022-08-19T19:17:14.378Z,5.68
2022-08-19T19:19:42.993Z,5.22
2022-08-19T19:22:12.999Z,5.70
2022-08-19T19:24:46.976Z,9.68
2022-08-19T19:27:18.503Z,10.20
2022-08-19T19:29:51.133Z,10.55
2022-08-19T19:32:36.899Z,10.85
2022-08-19T19:35:07.740Z,10.20
2022-08-19T19:37:34.960Z,6.65
2022-08-19T19:40:02.779Z,7.35
2022-08-19T19:42:29.759Z,6.78
2022-08-19T19:44:59.292Z,7.47
2022-08-19T19:47:28.565Z,10.02
2022-08-19T19:50:15.092Z,8.30
2022-08-19T19:52:46.827Z,9.15
2022-08-19T19:55:15.720Z,7.90
2022-08-19T19:57:42.674Z,8.68
2022-08-19T20:00:12.943Z,8.55
2022-08-19T20:02:39.902Z,7.03
2022-08-19T20:05:07.796Z,7.28
2022-08-19T20:07:54.357Z,7.10
2022-08-19T20:10:21.743Z,7.15
2022-08-19T20:12:48.746Z,7.55
2022-08-19T20:15:16.156Z,7.90
2022-08-19T20:17:43.169Z,8.20
2022-08-19T20:20:14.054Z,9.68
2022-08-19T20:22:44.243Z,10.07
2022-08-19T20:25:12.968Z,8.18
2022-08-19T20:27:41.770Z,7.80
2022-08-19T20:30:19.413Z,7.55
2022-08-19T20:32:49.581Z,7.13
2022-08-19T20:35:19.923Z,6.90
2022-08-19T20:37:47.686Z,7.15
2022-08-19T20:40:21.585Z,6.97
2022-08-19T20:42:50.800Z,9.93
2022-08-19T20:45:33.149Z,7.55
2022-08-19T20:48:02.986Z,8.38
2022-08-19T20:50:31.992Z,9.05
2022-08-19T20:52:59.350Z,8.95
2022-08-19T20:55:27.438Z,7.88
2022-08-19T20:57:55.621Z,8.05
2022-08-19T21:00:23.048Z,8.13
2022-08-19T21:02:50.271Z,8.70
2022-08-19T21:05:17.237Z,9.35
2022-08-19T21:07:44.925Z,9.23
2022-08-19T21:10:12.206Z,9.27
2022-08-19T21:12:40.675Z,9.95
2022-08-19T21:15:09.085Z,8.88
2022-08-19T21:17:36.664Z,9.07
2022-08-19T21:20:07.116Z,9.05
2022-08-19T21:22:34.788Z,9.65
2022-08-19T21:25:03.173Z,8.32
2022-08-19T21:27:30.607Z,9.00
2022-08-19T21:29:57.908Z,8.32
2022-08-19T21:32:26.950Z,8.20
2022-08-19T21:34:54.010Z,9.32
2022-08-19T21:37:25.585Z,8.77
2022-08-19T21:39:56.438Z,8.40
2022-08-19T21:42:24.659Z,10.00
2022-08-19T21:44:52.095Z,8.77
2022-08-19T21:47:19.296Z,9.10
2022-08-19T21:49:46.962Z,8.73
2022-08-19T21:52:14.000Z,8.60
2022-08-19T21:54:41.215Z,9.18
2022-08-19T21:57:10.769Z,10.20
2022-08-19T21:59:43.758Z,10.48
2022-08-19T22:02:21.562Z,9.07
2022-08-19T22:04:53.028Z,10.30
2022-08-19T22:07:22.139Z,8.88
2022-08-19T22:09:50.889Z,10.07
2022-08-19T22:12:28.761Z,11.93
2022-08-19T22:14:57.943Z,11.70
2022-08-19T22:17:27.533Z,16.05
2022-08-19T22:19:56.527Z,15.93
2022-08-19T22:22:28.799Z,14.82
2022-08-19T22:25:04.074Z,15.27
2022-08-19T22:27:31.524Z,20.27
2022-08-19T22:29:58.518Z,23.67
2022-08-19T22:32:28.551Z,22.58
2022-08-19T22:34:59.083Z,28.13
2022-08-19T22:37:29.831Z,27.65
2022-08-19T22:39:57.159Z,28.02
2022-08-19T22:42:30.780Z,26.70
2022-08-19T22:45:00.573Z,23.45
2022-08-19T22:47:29.448Z,16.10
2022-08-19T22:49:59.805Z,12.98
2022-08-19T22:52:27.147Z,10.55
2022-08-19T22:54:59.249Z,10.10
2022-08-19T22:57:27.521Z,9.75
2022-08-19T22:59:55.465Z,9.88
2022-08-19T23:02:38.488Z,9.73
2022-08-19T23:05:10.966Z,10.15
2022-08-19T23:07:39.187Z,9.35
2022-08-19T23:10:10.650Z,8.73
2022-08-19T23:12:41.412Z,8.68
2022-08-19T23:15:20.339Z,9.57
2022-08-19T23:17:47.626Z,8.48
2022-08-19T23:20:16.375Z,7.78
2022-08-19T23:22:48.231Z,8.80
2022-08-19T23:25:22.306Z,8.65
2022-08-19T23:28:09.410Z,7.60
2022-08-19T23:33:15.328Z,9.13
2022-08-19T23:35:44.614Z,10.93
2022-08-19T23:38:11.620Z,10.73
2022-08-19T23:40:39.886Z,8.52
2022-08-19T23:43:08.122Z,8.80
2022-08-19T23:45:39.593Z,9.38
2022-08-19T23:48:08.212Z,8.45
2022-08-19T23:50:36.624Z,9.63
2022-08-19T23:53:04.234Z,13.35
2022-08-19T23:55:36.033Z,9.70
2022-08-19T23:58:04.340Z,9.20
